Time;durP1;ratioP1;P1;durP2;ratioP2;P2;SDS_P1;SDS_P2;PMS_P1;PMS_P2;Temp;Humidity;BMP_temperature;BMP_pressure;BME280_temperature;BME280_humidity;BME280_pressure;Samples;Min_cycle;Max_cycle;Signal;HPM_P1;HPM_P2
2022/03/25 00:00:06;;;;;;;12.93;5.90;;;;;;;11.39;30.53;94760.84;5052343;28;20293;-60
2022/03/25 00:02:32;;;;;;;11.30;5.90;;;;;;;11.36;30.61;94762.88;5051073;28;20258;-64
2022/03/25 00:04:57;;;;;;;11.07;5.27;;;;;;;11.31;30.63;94747.97;5052478;28;20221;-65
2022/03/25 00:07:23;;;;;;;12.30;5.70;;;;;;;11.27;30.43;94746.63;5050872;28;20192;-61
2022/03/25 00:09:49;;;;;;;9.30;5.40;;;;;;;11.33;30.37;94751.19;5052335;28;20207;-61
2022/03/25 00:12:14;;;;;;;15.90;5.77;;;;;;;11.34;30.64;94745.19;5052036;28;20178;-60
2022/03/25 00:14:40;;;;;;;10.30;5.30;;;;;;;11.32;30.27;94753.88;5051011;28;20221;-65
2022/03/25 00:17:05;;;;;;;9.90;5.10;;;;;;;11.35;30.40;94749.31;5048607;28;20236;-65
2022/03/25 00:19:31;;;;;;;12.77;5.27;;;;;;;11.39;30.03;94748.13;5051789;28;20235;-64
2022/03/25 00:21:56;;;;;;;11.57;5.63;;;;;;;11.44;30.08;94752.81;5052160;28;20177;-62
2022/03/25 00:24:24;;;;;;;8.13;5.17;;;;;;;11.40;30.21;94742.09;5052069;28;20263;-65
2022/03/25 00:26:50;;;;;;;7.80;5.13;;;;;;;11.39;30.14;94732.06;5051978;28;20181;-62
2022/03/25 00:29:15;;;;;;;8.23;5.43;;;;;;;11.43;29.95;94735.97;5051884;28;20196;-59
2022/03/25 00:31:40;;;;;;;10.83;6.00;;;;;;;11.39;30.04;94722.66;5051968;28;20203;-64
2022/03/25 00:34:07;;;;;;;11.90;5.33;;;;;;;11.38;30.06;94725.34;5051811;28;20636;-64
2022/03/25 00:36:33;;;;;;;10.03;5.20;;;;;;;11.42;29.98;94724.97;5052127;28;20190;-62
2022/03/25 00:38:58;;;;;;;11.80;5.37;;;;;;;11.43;29.75;94724.00;5051788;28;20198;-65
2022/03/25 00:41:24;;;;;;;9.43;5.50;;;;;;;11.21;29.62;94690.41;5050487;28;20525;-64
2022/03/25 00:43:50;;;;;;;12.37;5.10;;;;;;;11.45;29.64;94723.91;5033895;28;20185;-65
2022/03/25 00:46:15;;;;;;;9.27;4.80;;;;;;;11.37;29.62;94711.81;5045515;23;20230;-60
2022/03/25 00:48:42;;;;;;;12.93;5.23;;;;;;;11.45;29.74;94726.44;5038624;23;20178;-64
2022/03/25 00:51:08;;;;;;;9.00;5.43;;;;;;;11.43;29.42;94721.47;5031527;28;20599;-66
2022/03/25 00:53:34;;;;;;;10.63;5.27;;;;;;;11.44;30.00;94718.00;5040375;23;20204;-61
2022/03/25 00:56:03;;;;;;;8.07;5.20;;;;;;;11.45;30.06;94711.16;5051332;28;20206;-60
2022/03/25 00:58:29;;;;;;;11.37;5.40;;;;;;;11.34;29.42;94696.81;5052047;28;20573;-64
2022/03/25 01:00:55;;;;;;;10.30;5.53;;;;;;;11.36;29.91;94692.41;5051987;28;20209;-62
2022/03/25 01:03:21;;;;;;;7.43;4.60;;;;;;;11.45;29.79;94713.72;5051793;28;20184;-62
2022/03/25 01:05:47;;;;;;;11.87;4.87;;;;;;;11.45;29.89;94709.41;5051752;28;20190;-59
2022/03/25 01:08:14;;;;;;;9.47;5.13;;;;;;;11.42;29.84;94717.31;5051647;28;20264;-64
2022/03/25 01:10:41;;;;;;;11.37;5.30;;;;;;;11.31;30.08;94702.16;5050157;28;20267;-60
2022/03/25 01:13:06;;;;;;;8.30;4.87;;;;;;;11.41;29.97;94713.16;5049889;28;20209;-62
2022/03/25 01:15:32;;;;;;;8.37;5.00;;;;;;;11.36;29.89;94709.41;5051130;28;20564;-64
2022/03/25 01:17:57;;;;;;;13.20;5.10;;;;;;;11.31;30.13;94717.44;5051619;28;20582;-60
2022/03/25 01:20:24;;;;;;;11.47;5.37;;;;;;;11.26;30.42;94704.31;5050174;28;20274;-60
2022/03/25 01:22:49;;;;;;;9.30;4.90;;;;;;;11.25;30.41;94705.25;5051468;28;20185;-64
2022/03/25 01:25:16;;;;;;;11.87;4.83;;;;;;;11.23;30.75;94709.66;5051327;28;20550;-65
2022/03/25 01:27:42;;;;;;;7.03;5.23;;;;;;;11.14;30.51;94700.28;5050537;28;20185;-60
2022/03/25 01:30:08;;;;;;;10.70;4.90;;;;;;;11.12;30.49;94703.91;5051238;28;20210;-65
2022/03/25 01:32:34;;;;;;;8.53;4.80;;;;;;;11.16;30.70;94703.50;5049967;28;20282;-64
2022/03/25 01:35:00;;;;;;;8.50;4.30;;;;;;;11.10;30.61;94700.69;5051155;28;20203;-63
2022/03/25 01:37:25;;;;;;;8.13;4.90;;;;;;;11.11;30.50;94708.16;5051546;28;20213;-64
2022/03/25 01:39:51;;;;;;;13.80;5.60;;;;;;;11.05;30.89;94703.63;5050357;28;20193;-64
2022/03/25 01:42:17;;;;;;;8.03;4.80;;;;;;;11.04;30.45;94702.03;5051043;28;20268;-64
2022/03/25 01:44:43;;;;;;;14.27;5.23;;;;;;;11.11;30.37;94709.94;5048893;28;20197;-65
2022/03/25 01:47:15;;;;;;;11.73;5.23;;;;;;;11.03;30.28;94702.16;5051176;28;20265;-65
2022/03/25 01:49:40;;;;;;;10.57;5.70;;;;;;;11.11;30.44;94715.81;5050971;28;20205;-63
2022/03/25 01:52:07;;;;;;;8.87;4.80;;;;;;;10.98;30.49;94698.28;5051248;28;20582;-64
2022/03/25 01:54:34;;;;;;;8.27;5.20;;;;;;;11.06;30.49;94717.97;5051680;28;20222;-65
2022/03/25 01:57:03;;;;;;;10.03;5.70;;;;;;;11.04;30.88;94719.81;5049861;28;20182;-65
2022/03/25 01:59:30;;;;;;;14.53;5.33;;;;;;;11.03;30.38;94723.28;5049998;28;20558;-64
2022/03/25 02:01:56;;;;;;;7.20;4.90;;;;;;;10.97;30.38;94718.72;5051079;28;20190;-65
2022/03/25 02:04:23;;;;;;;10.63;5.23;;;;;;;11.01;30.66;94714.97;5051033;28;20213;-60
2022/03/25 02:06:49;;;;;;;10.67;5.57;;;;;;;10.90;30.71;94698.13;5054152;28;20330;-64
2022/03/25 02:09:14;;;;;;;11.30;4.87;;;;;;;10.90;30.67;94713.38;5054942;28;20190;-64
2022/03/25 02:11:41;;;;;;;6.50;5.07;;;;;;;10.94;30.65;94709.63;5054629;28;20189;-63
2022/03/25 02:14:08;;;;;;;10.77;4.53;;;;;;;10.93;30.84;94712.28;5051363;28;20295;-65
2022/03/25 02:16:44;;;;;;;8.93;5.40;;;;;;;10.79;30.85;94695.66;5052652;28;20569;-60
2022/03/25 02:19:18;;;;;;;7.37;5.33;;;;;;;10.84;30.48;94708.00;5054229;28;20178;-63
2022/03/25 02:21:45;;;;;;;10.73;5.70;;;;;;;10.88;30.67;94709.34;5053118;28;20177;-60
2022/03/25 02:24:12;;;;;;;8.37;5.37;;;;;;;10.84;30.78;94708.81;5054259;28;20599;-63
2022/03/25 02:26:39;;;;;;;10.43;5.40;;;;;;;10.86;30.59;94713.75;5053143;28;20181;-61
2022/03/25 02:29:05;;;;;;;7.27;4.97;;;;;;;10.86;30.81;94699.31;5054350;28;20214;-65
2022/03/25 02:31:31;;;;;;;9.37;4.87;;;;;;;10.80;31.12;94702.38;5054032;28;20209;-64
2022/03/25 02:34:00;;;;;;;11.20;4.90;;;;;;;10.77;30.78;94701.81;5054375;28;20693;-64
2022/03/25 02:36:25;;;;;;;12.53;6.03;;;;;;;10.75;30.96;94699.41;5054030;28;20201;-65
2022/03/25 02:38:51;;;;;;;10.50;5.77;;;;;;;10.71;30.84;94697.25;5053059;28;20182;-62
2022/03/25 02:41:16;;;;;;;11.73;5.23;;;;;;;10.77;31.44;94704.34;5053983;28;20206;-60
2022/03/25 02:43:42;;;;;;;16.43;6.03;;;;;;;10.63;31.15;94697.09;5052513;28;20193;-65
2022/03/25 02:46:08;;;;;;;12.37;6.33;;;;;;;10.73;30.96;94701.28;5052467;28;20584;-65
2022/03/25 02:48:34;;;;;;;9.50;5.77;;;;;;;10.75;31.14;94701.13;5053620;28;20302;-60
2022/03/25 02:50:59;;;;;;;9.23;5.67;;;;;;;10.65;31.38;94700.31;5053866;28;20588;-64
2022/03/25 02:53:25;;;;;;;10.20;5.53;;;;;;;10.64;31.19;94712.22;5052157;28;20210;-60
2022/03/25 02:55:51;;;;;;;9.13;5.50;;;;;;;10.64;31.32;94706.34;5052790;28;20228;-66
2022/03/25 02:58:17;;;;;;;10.33;4.93;;;;;;;10.60;31.96;94723.59;5051391;28;20173;-65
2022/03/25 03:00:43;;;;;;;10.33;5.17;;;;;;;10.55;31.42;94700.28;5053755;28;20208;-61
2022/03/25 03:03:09;;;;;;;10.17;5.40;;;;;;;10.53;31.59;94722.47;5053780;28;20182;-65
2022/03/25 03:05:34;;;;;;;8.90;5.30;;;;;;;10.52;31.69;94712.44;5053446;28;20220;-65
2022/03/25 03:08:01;;;;;;;13.10;5.87;;;;;;;10.46;31.86;94711.22;5053375;28;20178;-63
2022/03/25 03:10:26;;;;;;;10.10;5.83;;;;;;;10.55;32.04;94714.72;5053298;28;20189;-62
2022/03/25 03:12:53;;;;;;;10.77;5.33;;;;;;;10.62;31.87;94715.81;5053305;28;20259;-65
2022/03/25 03:15:19;;;;;;;10.57;5.67;;;;;;;10.65;32.47;94721.44;5051900;28;20209;-62
2022/03/25 03:17:46;;;;;;;9.40;5.37;;;;;;;10.65;31.88;94718.09;5050845;28;20251;-60
2022/03/25 03:20:13;;;;;;;9.00;5.43;;;;;;;10.54;31.71;94719.03;5051424;28;20213;-61
2022/03/25 03:22:39;;;;;;;15.03;5.87;;;;;;;10.49;31.78;94722.84;5053435;28;20197;-63
2022/03/25 03:25:05;;;;;;;15.23;7.63;;;;;;;10.50;31.72;94725.28;5051866;28;20589;-60
2022/03/25 03:27:31;;;;;;;9.93;6.20;;;;;;;10.65;32.23;94733.34;5053218;28;20197;-62
2022/03/25 03:29:58;;;;;;;10.37;5.80;;;;;;;10.58;32.21;94727.19;5053539;28;20193;-60
2022/03/25 03:32:28;;;;;;;9.53;6.67;;;;;;;10.46;32.17;94729.03;5052884;28;20186;-62
2022/03/25 03:34:54;;;;;;;10.80;5.70;;;;;;;10.52;32.16;94722.63;5052687;28;20216;-59
2022/03/25 03:37:21;;;;;;;9.90;6.10;;;;;;;10.44;32.27;94725.00;5052655;28;20209;-65
2022/03/25 03:39:47;;;;;;;8.03;5.90;;;;;;;10.39;32.66;94719.47;5052759;28;20193;-62
2022/03/25 03:42:14;;;;;;;12.53;6.10;;;;;;;10.41;32.44;94725.22;5052657;28;20186;-62
2022/03/25 03:44:40;;;;;;;14.83;6.77;;;;;;;10.41;32.01;94725.22;5052635;28;20201;-64
2022/03/25 03:47:10;;;;;;;8.37;6.20;;;;;;;10.40;32.65;94723.63;5051348;28;20190;-64
2022/03/25 03:49:36;;;;;;;8.87;5.73;;;;;;;10.49;32.53;94722.84;5049402;28;20197;-64
2022/03/25 03:52:04;;;;;;;12.93;7.10;;;;;;;10.17;32.58;94700.13;5005749;23;20225;-65
2022/03/25 03:54:29;;;;;;;13.33;6.40;;;;;;;10.41;32.51;94725.22;4993275;28;20230;-61
2022/03/25 03:56:54;;;;;;;9.23;6.00;;;;;;;10.30;32.81;94727.88;4993144;28;20255;-62
2022/03/25 03:59:20;;;;;;;11.77;6.00;;;;;;;10.28;32.67;94729.72;4993129;28;20680;-64
2022/03/25 04:01:45;;;;;;;9.87;5.33;;;;;;;10.32;33.08;94734.44;4959950;28;20184;-64
2022/03/25 04:04:11;;;;;;;12.10;5.90;;;;;;;10.33;32.90;94722.50;4992852;28;20171;-62
2022/03/25 04:06:37;;;;;;;8.57;5.70;;;;;;;10.19;33.06;94730.47;5036094;23;20598;-63
2022/03/25 04:09:03;;;;;;;11.43;5.87;;;;;;;10.36;33.57;94732.44;5032184;28;20179;-65
2022/03/25 04:11:28;;;;;;;13.33;5.40;;;;;;;10.48;33.28;94733.97;5032373;28;20270;-65
2022/03/25 04:13:54;;;;;;;10.03;6.03;;;;;;;10.40;33.41;94729.53;5032303;28;20213;-66
2022/03/25 04:16:21;;;;;;;11.83;5.47;;;;;;;10.21;33.21;94719.25;5032093;28;20260;-65
2022/03/25 04:18:47;;;;;;;7.03;5.63;;;;;;;10.32;32.54;94733.63;5032140;28;20660;-66
2022/03/25 04:21:12;;;;;;;9.20;5.80;;;;;;;10.09;32.96;94726.13;5032349;28;20289;-64
2022/03/25 04:23:38;;;;;;;13.30;5.77;;;;;;;9.86;32.98;94737.31;5032471;28;20272;-64
2022/03/25 04:26:04;;;;;;;12.17;6.23;;;;;;;9.86;33.06;94732.25;5031812;28;20202;-64
2022/03/25 04:28:29;;;;;;;11.07;5.50;;;;;;;9.78;33.32;94729.53;5031920;28;20640;-65
2022/03/25 04:31:02;;;;;;;12.77;6.00;;;;;;;9.96;33.97;94735.66;4997354;28;20206;-60
2022/03/25 04:33:28;;;;;;;14.73;6.50;;;;;;;9.81;33.70;94741.97;5031981;28;20259;-60
2022/03/25 04:35:54;;;;;;;12.07;6.10;;;;;;;9.89;34.11;94747.25;5031671;28;20702;-66
2022/03/25 04:38:19;;;;;;;15.53;5.60;;;;;;;10.22;33.70;94740.41;5014253;28;20186;-62
2022/03/25 04:40:45;;;;;;;12.77;6.80;;;;;;;10.48;32.65;94750.03;5013970;28;20263;-60
2022/03/25 04:43:10;;;;;;;13.70;8.17;;;;;;;10.51;34.36;94756.56;5014378;28;20236;-61
2022/03/25 04:45:36;;;;;;;19.70;9.27;;;;;;;10.22;34.77;94761.50;5031623;28;20202;-63
2022/03/25 04:48:03;;;;;;;18.80;9.47;;;;;;;9.84;36.08;94763.75;5031989;28;20175;-65
2022/03/25 04:50:29;;;;;;;17.83;10.27;;;;;;;9.63;36.69;94768.84;4998159;28;20582;-64
2022/03/25 04:52:55;;;;;;;26.70;9.50;;;;;;;9.16;37.23;94764.13;5013926;28;20212;-66
2022/03/25 04:55:20;;;;;;;18.47;9.20;;;;;;;9.24;37.74;94782.91;5031532;28;20202;-64
2022/03/25 04:57:47;;;;;;;21.27;9.00;;;;;;;9.22;36.89;94778.88;5031682;28;20175;-64
2022/03/25 05:00:15;;;;;;;15.07;9.23;;;;;;;9.16;37.72;94785.22;5031697;28;20267;-66
2022/03/25 05:02:41;;;;;;;25.70;10.73;;;;;;;9.22;37.44;94776.31;5014209;28;20277;-65
2022/03/25 05:05:07;;;;;;;18.50;8.53;;;;;;;9.46;38.11;94774.41;5031659;28;20249;-60
2022/03/25 05:07:33;;;;;;;18.77;8.37;;;;;;;9.49;37.40;94769.13;5031411;28;20178;-66
2022/03/25 05:10:00;;;;;;;22.97;9.57;;;;;;;9.57;37.91;94779.47;5032168;28;20209;-60
2022/03/25 05:12:26;;;;;;;25.57;9.60;;;;;;;9.65;37.60;94782.22;5031249;28;20178;-60
2022/03/25 05:14:53;;;;;;;19.87;9.50;;;;;;;9.53;38.42;94782.38;5031308;28;20257;-61
2022/03/25 05:17:19;;;;;;;18.30;9.93;;;;;;;9.57;38.31;94789.63;5031155;28;20541;-66
2022/03/25 05:19:44;;;;;;;24.07;11.53;;;;;;;9.56;38.51;94785.44;5029214;28;20261;-61
2022/03/25 05:22:10;;;;;;;23.87;10.50;;;;;;;9.47;39.07;94780.31;5031466;28;20178;-60
2022/03/25 05:24:35;;;;;;;21.93;10.07;;;;;;;9.42;38.45;94774.78;5031650;28;20294;-62
2022/03/25 05:27:01;;;;;;;16.70;9.07;;;;;;;9.52;37.35;94785.81;5031275;28;20179;-62
2022/03/25 05:29:28;;;;;;;17.97;9.27;;;;;;;9.59;37.12;94780.16;5031452;28;20692;-62
2022/03/25 05:31:54;;;;;;;17.83;8.33;;;;;;;9.81;37.11;94775.00;5031282;28;20174;-64
2022/03/25 05:34:19;;;;;;;20.93;10.57;;;;;;;10.02;37.19;94785.13;5013315;28;20297;-63
2022/03/25 05:36:44;;;;;;;25.17;10.17;;;;;;;10.20;37.24;94785.44;5031597;28;20182;-63
2022/03/25 05:39:10;;;;;;;28.90;12.07;;;;;;;10.10;38.27;94773.47;5013583;28;20187;-61
2022/03/25 05:41:36;;;;;;;29.77;13.40;;;;;;;10.01;39.19;94779.28;5033958;28;20236;-59
2022/03/25 05:44:01;;;;;;;26.03;12.67;;;;;;;9.89;40.02;94787.06;5035166;28;20174;-65
2022/03/25 05:46:27;;;;;;;26.80;12.67;;;;;;;9.76;39.53;94794.84;5017143;28;20217;-64
2022/03/25 05:48:52;;;;;;;36.60;13.03;;;;;;;9.61;39.54;94791.00;5019956;28;20274;-63
2022/03/25 05:51:18;;;;;;;29.87;12.57;;;;;;;9.63;39.68;94793.41;5016369;28;20647;-62
2022/03/25 05:53:44;;;;;;;34.17;13.67;;;;;;;9.59;40.54;94784.41;5033260;28;20206;-60
2022/03/25 05:56:11;;;;;;;30.47;10.73;;;;;;;9.42;38.55;94773.03;5017013;28;20222;-64
2022/03/25 05:58:44;;;;;;;23.10;10.77;;;;;;;9.58;38.29;94786.13;5034817;28;20186;-63
2022/03/25 06:01:10;;;;;;;25.37;9.73;;;;;;;9.67;36.59;94793.03;5034776;28;20579;-64
2022/03/25 06:03:38;;;;;;;20.23;7.87;;;;;;;9.99;35.54;94796.38;5034797;28;20174;-61
2022/03/25 06:06:05;;;;;;;13.97;7.67;;;;;;;10.17;34.66;94783.94;5017068;28;20629;-63
2022/03/25 06:08:33;;;;;;;10.77;6.90;;;;;;;10.47;33.15;94778.91;5017568;28;20175;-65
2022/03/25 06:11:00;;;;;;;16.80;7.23;;;;;;;10.68;32.71;94787.31;5035111;28;20209;-64
2022/03/25 06:13:27;;;;;;;14.97;7.27;;;;;;;10.85;33.27;94788.44;5034697;28;20194;-61
2022/03/25 06:15:53;;;;;;;17.83;7.07;;;;;;;10.98;32.54;94791.56;5016729;28;20207;-64
2022/03/25 06:18:19;;;;;;;15.63;7.50;;;;;;;11.07;32.27;94795.09;5016043;28;20170;-64
2022/03/25 06:20:44;;;;;;;10.20;6.90;;;;;;;11.15;32.49;94793.47;5032155;28;20260;-62
2022/03/25 06:23:10;;;;;;;14.60;7.57;;;;;;;11.28;31.72;94794.06;5016417;28;20179;-62
2022/03/25 06:25:35;;;;;;;12.67;7.20;;;;;;;11.34;32.18;94795.28;5016618;28;20763;-60
2022/03/25 06:28:04;;;;;;;14.43;7.20;;;;;;;11.37;31.82;94783.09;5016708;28;20186;-65
2022/03/25 06:30:34;;;;;;;12.17;7.37;;;;;;;11.55;31.33;94785.81;5034195;28;20293;-65
2022/03/25 06:33:00;;;;;;;16.27;7.43;;;;;;;11.63;31.38;94786.75;5033999;28;20676;-64
2022/03/25 06:35:26;;;;;;;16.90;7.37;;;;;;;11.72;31.12;94790.25;5034435;28;20263;-65
2022/03/25 06:37:52;;;;;;;11.37;6.77;;;;;;;11.77;30.40;94791.50;5034575;28;20640;-65
2022/03/25 06:40:19;;;;;;;14.80;7.70;;;;;;;11.92;30.24;94793.63;5034274;28;20213;-65
2022/03/25 06:42:45;;;;;;;11.93;6.93;;;;;;;11.93;29.99;94790.13;5016394;28;20658;-66
2022/03/25 06:45:13;;;;;;;10.60;7.40;;;;;;;11.90;29.49;94781.00;5034215;28;20217;-66
2022/03/25 06:47:39;;;;;;;13.03;7.30;;;;;;;12.15;29.82;94802.59;5034058;28;20304;-61
2022/03/25 06:50:06;;;;;;;12.50;8.47;;;;;;;12.13;29.29;94794.28;5033931;28;20303;-62
2022/03/25 06:52:32;;;;;;;17.30;8.23;;;;;;;12.24;29.29;94789.06;5032901;28;20174;-62
2022/03/25 06:54:58;;;;;;;16.30;8.00;;;;;;;12.22;29.25;94788.38;5031856;28;20230;-61
2022/03/25 06:57:26;;;;;;;16.27;8.83;;;;;;;12.16;29.40;94791.47;5032384;28;20680;-65
2022/03/25 06:59:52;;;;;;;15.87;8.60;;;;;;;12.17;29.41;94786.25;5016083;28;20217;-60
2022/03/25 07:02:18;;;;;;;14.67;9.13;;;;;;;12.30;29.11;94784.19;5034127;28;20178;-63
2022/03/25 07:04:44;;;;;;;15.73;8.50;;;;;;;12.47;29.12;94772.47;5033825;28;20607;-61
2022/03/25 07:07:11;;;;;;;22.47;10.33;;;;;;;12.64;29.33;94775.09;5034019;28;20174;-64
2022/03/25 07:09:37;;;;;;;18.60;10.13;;;;;;;12.84;29.90;94775.88;5033806;28;20277;-62
2022/03/25 07:12:03;;;;;;;19.60;9.70;;;;;;;12.69;29.09;94779.78;5033930;28;20201;-65
2022/03/25 07:14:29;;;;;;;13.37;8.67;;;;;;;12.48;29.10;94782.53;5015652;28;20226;-65
2022/03/25 07:16:54;;;;;;;16.40;9.40;;;;;;;12.77;29.42;94781.66;5015751;28;20589;-62
2022/03/25 07:19:20;;;;;;;13.13;9.70;;;;;;;12.64;29.19;94776.88;5015626;28;20174;-66
2022/03/25 07:21:46;;;;;;;19.10;9.17;;;;;;;12.82;29.42;94765.00;5033377;28;20751;-64
2022/03/25 07:24:12;;;;;;;17.37;9.97;;;;;;;12.82;29.41;94792.25;5033521;28;20252;-64
2022/03/25 07:26:37;;;;;;;23.53;10.33;;;;;;;12.86;29.16;94786.72;5037991;23;20230;-60
2022/03/25 07:29:04;;;;;;;20.40;9.83;;;;;;;12.79;29.48;94792.50;5013508;28;20699;-67
2022/03/25 07:31:30;;;;;;;21.70;9.77;;;;;;;12.80;29.74;94789.84;5033564;28;20178;-62
2022/03/25 07:33:56;;;;;;;20.03;9.77;;;;;;;12.79;29.14;94788.22;5015498;28;20202;-61
2022/03/25 07:36:21;;;;;;;17.43;9.80;;;;;;;12.86;29.27;94771.44;5033070;28;20217;-64
2022/03/25 07:38:47;;;;;;;20.37;9.90;;;;;;;12.95;28.98;94788.44;5033262;28;20519;-62
2022/03/25 07:41:12;;;;;;;18.27;9.60;;;;;;;13.04;29.27;94786.81;5033414;28;20206;-60
2022/03/25 07:43:39;;;;;;;16.77;9.47;;;;;;;13.27;29.16;94786.28;5033239;28;20192;-62
2022/03/25 07:46:05;;;;;;;19.47;9.73;;;;;;;13.40;29.30;94776.53;5033413;28;20264;-61
2022/03/25 07:48:31;;;;;;;16.43;10.20;;;;;;;13.35;28.63;94785.59;5013709;28;20639;-65
2022/03/25 07:50:56;;;;;;;21.03;9.73;;;;;;;13.39;29.27;94771.59;5012897;28;20206;-63
2022/03/25 07:53:22;;;;;;;20.00;9.70;;;;;;;13.63;28.97;94786.34;5032889;28;20206;-62
2022/03/25 07:55:50;;;;;;;16.52;9.18;;;;;;;13.68;28.95;94799.47;5033137;28;20206;-61
2022/03/25 07:58:20;;;;;;;17.67;10.70;;;;;;;13.67;28.50;94767.22;5014969;28;20320;-65
2022/03/25 08:00:49;;;;;;;23.83;11.13;;;;;;;13.76;28.30;94782.47;5032886;28;20615;-61
2022/03/25 08:03:16;;;;;;;28.43;11.03;;;;;;;13.72;28.56;94780.34;5014580;28;20645;-61
2022/03/25 08:05:42;;;;;;;19.83;10.30;;;;;;;13.48;28.63;94779.19;5032530;28;20576;-62
2022/03/25 08:08:08;;;;;;;16.17;9.17;;;;;;;13.40;28.43;94781.66;5032386;28;20201;-63
2022/03/25 08:10:35;;;;;;;11.50;8.77;;;;;;;13.41;28.75;94788.34;5032428;28;20743;-61
2022/03/25 08:13:01;;;;;;;22.57;10.33;;;;;;;13.41;28.30;94783.25;5032326;28;20202;-65
2022/03/25 08:15:29;;;;;;;21.53;9.77;;;;;;;13.48;28.41;94789.41;5032267;28;20210;-64
2022/03/25 08:18:00;;;;;;;33.23;10.77;;;;;;;13.35;27.98;94780.50;5031787;28;20179;-62
2022/03/25 08:20:33;;;;;;;17.50;9.50;;;;;;;13.42;27.90;94802.75;5030281;28;20641;-62
2022/03/25 08:23:01;;;;;;;19.73;9.77;;;;;;;13.40;28.20;94796.16;5014413;28;20206;-64
2022/03/25 08:28:12;;;;;;;20.97;9.03;;;;;;;13.84;28.16;94787.66;5032409;28;20200;-60
2022/03/25 08:30:37;;;;;;;17.17;9.70;;;;;;;13.77;28.07;94770.50;5032205;28;20260;-65
2022/03/25 08:33:05;;;;;;;17.53;9.10;;;;;;;13.98;27.70;94783.78;5032236;28;20679;-65
2022/03/25 08:35:31;;;;;;;23.00;9.33;;;;;;;14.23;27.77;94786.41;5032326;28;20214;-66
2022/03/25 08:37:57;;;;;;;14.93;9.87;;;;;;;14.16;27.85;94789.69;5032134;28;20239;-64
2022/03/25 08:40:25;;;;;;;18.93;9.50;;;;;;;14.34;27.65;94795.63;5031864;28;20210;-64
2022/03/25 08:42:50;;;;;;;18.23;10.20;;;;;;;14.21;27.31;94769.59;5014083;28;20178;-62
2022/03/25 08:45:17;;;;;;;19.25;9.70;;;;;;;14.42;27.37;94771.84;5031981;28;20751;-64
2022/03/25 08:47:48;;;;;;;17.97;9.37;;;;;;;14.66;26.92;94777.94;5013757;28;20230;-63
2022/03/25 08:50:16;;;;;;;25.80;9.67;;;;;;;14.72;26.97;94772.22;5030025;28;20209;-66
2022/03/25 08:52:43;;;;;;;19.02;9.32;;;;;;;14.84;27.03;94762.50;5031614;28;20261;-64
2022/03/25 08:55:10;;;;;;;16.20;8.43;;;;;;;14.70;27.17;94776.69;5031959;28;20628;-65
2022/03/25 08:57:37;;;;;;;15.70;9.27;;;;;;;14.89;26.96;94768.75;5014059;28;20348;-65
2022/03/25 09:00:07;;;;;;;15.43;8.90;;;;;;;15.09;26.53;94766.75;5013650;28;20202;-62
2022/03/25 09:02:32;;;;;;;17.92;9.63;;;;;;;15.14;26.40;94767.91;5031777;28;20182;-65
2022/03/25 09:04:58;;;;;;;16.48;8.95;;;;;;;15.13;26.69;94756.06;5013771;28;20702;-60
2022/03/25 09:07:23;;;;;;;17.80;9.88;;;;;;;15.32;26.23;94761.88;5032246;28;20182;-61
2022/03/25 09:09:48;;;;;;;15.27;9.50;;;;;;;15.29;25.92;94739.16;5014079;28;20735;-60
2022/03/25 09:12:14;;;;;;;17.65;9.30;;;;;;;15.39;26.04;94752.63;5032160;28;20256;-67
2022/03/25 09:14:40;;;;;;;13.80;8.00;;;;;;;15.78;25.73;94766.47;5031447;28;20218;-60
2022/03/25 09:17:05;;;;;;;20.30;9.75;;;;;;;15.55;25.34;94739.88;5035005;28;20182;-66
2022/03/25 09:19:31;;;;;;;13.07;7.90;;;;;;;15.94;25.52;94751.94;5035892;28;20198;-65
2022/03/25 09:21:56;;;;;;;18.80;8.82;;;;;;;15.85;24.87;94741.84;5034489;28;20216;-64
2022/03/25 09:24:21;;;;;;;16.05;8.57;;;;;;;16.04;25.00;94731.25;5033481;28;20289;-59
2022/03/25 09:26:47;;;;;;;13.88;8.65;;;;;;;16.29;24.76;94730.28;5017771;28;20193;-60
2022/03/25 09:29:13;;;;;;;16.27;8.88;;;;;;;16.24;24.66;94727.38;5035318;28;20182;-60
2022/03/25 09:31:39;;;;;;;17.83;9.38;;;;;;;16.00;24.73;94735.09;5017741;28;20576;-63
2022/03/25 09:36:49;;;;;;;15.98;8.02;;;;;;;16.29;24.51;94719.19;5020863;28;20193;-60
2022/03/25 09:39:14;;;;;;;12.43;7.78;;;;;;;16.66;24.20;94707.44;5035329;28;20529;-65
2022/03/25 09:41:40;;;;;;;13.85;8.32;;;;;;;16.45;23.49;94722.56;5035738;28;20186;-67
2022/03/25 09:44:07;;;;;;;15.73;7.38;;;;;;;16.41;23.46;94705.06;5017383;28;20707;-62
2022/03/25 09:46:32;;;;;;;14.18;7.38;;;;;;;16.41;23.16;94721.28;5034320;28;20275;-66
2022/03/25 09:48:58;;;;;;;15.48;7.60;;;;;;;16.76;23.24;94697.00;5033749;28;20231;-64
2022/03/25 09:51:23;;;;;;;13.20;8.07;;;;;;;16.85;22.96;94706.25;5033719;28;20348;-61
2022/03/25 09:53:49;;;;;;;10.93;8.38;;;;;;;16.77;22.79;94694.25;5034885;28;20215;-65
2022/03/25 09:56:15;;;;;;;19.65;8.68;;;;;;;17.01;22.71;94695.91;5018026;28;20228;-64
2022/03/25 09:58:41;;;;;;;13.38;7.25;;;;;;;17.47;23.47;94697.56;5034751;28;20170;-64
2022/03/25 10:01:07;;;;;;;17.98;7.18;;;;;;;17.43;22.22;94674.97;5034691;28;20210;-64
2022/03/25 10:03:40;;;;;;;16.05;7.75;;;;;;;17.48;22.57;94688.09;5017008;28;20256;-61
2022/03/25 10:06:11;;;;;;;11.95;8.00;;;;;;;17.81;22.21;94696.41;5034814;28;20268;-62
2022/03/25 10:08:40;;;;;;;11.15;7.47;;;;;;;17.46;22.41;94695.19;5034983;28;20182;-64
2022/03/25 10:11:26;;;;;;;12.68;6.63;;;;;;;17.29;22.10;94680.84;5034884;28;20209;-65
2022/03/25 10:14:29;;;;;;;13.05;7.15;;;;;;;16.91;22.12;94687.59;5034661;28;20206;-66
2022/03/25 10:16:55;;;;;;;9.85;6.20;;;;;;;16.60;22.58;94672.16;5017086;28;20659;-61
2022/03/25 10:19:24;;;;;;;10.15;6.53;;;;;;;16.73;22.45;94679.34;5034594;28;20281;-66
2022/03/25 10:22:01;;;;;;;20.17;7.32;;;;;;;16.74;22.30;94670.69;5034415;28;20219;-63
2022/03/25 10:24:40;;;;;;;22.17;7.85;;;;;;;16.84;22.04;94663.56;5016715;28;20205;-64
2022/03/25 10:27:07;;;;;;;12.63;6.85;;;;;;;16.98;21.69;94669.75;5033072;28;20232;-60
2022/03/25 10:29:35;;;;;;;11.48;6.60;;;;;;;16.98;21.60;94672.34;5034172;28;20255;-61
2022/03/25 10:32:10;;;;;;;11.77;6.57;;;;;;;17.20;21.43;94654.41;5017451;28;20182;-65
2022/03/25 10:34:37;;;;;;;12.43;6.85;;;;;;;17.30;21.46;94665.25;5016444;28;20214;-64
2022/03/25 10:37:05;;;;;;;9.98;6.38;;;;;;;17.48;21.54;94652.91;5034651;28;20241;-61
2022/03/25 10:39:32;;;;;;;9.05;6.13;;;;;;;17.05;21.70;94647.59;5033839;28;20806;-60
2022/03/25 10:42:03;;;;;;;11.15;6.30;;;;;;;17.55;21.34;94646.13;5016741;28;20194;-58
2022/03/25 10:44:36;;;;;;;21.17;6.93;;;;;;;17.17;21.61;94646.22;5016110;28;20202;-61
2022/03/25 10:47:24;;;;;;;12.63;6.45;;;;;;;17.25;21.45;94661.59;5034490;28;20593;-64
2022/03/25 10:49:51;;;;;;;13.10;6.63;;;;;;;17.74;21.31;94641.50;5016225;28;20199;-60
2022/03/25 10:52:23;;;;;;;9.65;6.90;;;;;;;17.53;21.34;94639.59;5016289;28;20320;-61
2022/03/25 10:54:50;;;;;;;8.70;6.03;;;;;;;17.96;20.86;94636.31;5033509;28;20214;-61
2022/03/25 10:57:17;;;;;;;10.45;5.97;;;;;;;17.80;21.13;94643.38;5034246;28;20657;-65
2022/03/25 10:59:56;;;;;;;8.00;5.50;;;;;;;18.25;20.23;94627.84;5033432;28;20213;-65
2022/03/25 11:02:22;;;;;;;10.52;5.85;;;;;;;18.01;20.56;94610.06;5034289;28;20194;-64
2022/03/25 11:04:49;;;;;;;12.18;6.18;;;;;;;17.69;20.50;94639.47;5033430;28;20195;-60
2022/03/25 11:07:16;;;;;;;9.07;5.55;;;;;;;17.69;20.49;94629.19;5033980;28;20214;-64
2022/03/25 11:09:43;;;;;;;10.98;5.50;;;;;;;18.04;20.38;94636.25;5033556;28;20194;-63
2022/03/25 11:12:11;;;;;;;7.47;5.65;;;;;;;18.25;20.18;94613.19;5016365;28;20186;-65
2022/03/25 11:14:37;;;;;;;7.78;5.68;;;;;;;17.95;20.41;94608.19;5033520;28;20214;-65
2022/03/25 11:17:07;;;;;;;11.35;5.90;;;;;;;18.04;20.24;94612.31;5015853;28;20187;-65
2022/03/25 11:19:34;;;;;;;8.63;5.68;;;;;;;18.30;20.37;94598.00;5014194;28;20293;-64
2022/03/25 11:22:03;;;;;;;9.50;5.80;;;;;;;18.68;20.26;94597.94;5030878;28;20189;-60
2022/03/25 11:24:53;;;;;;;12.48;5.38;;;;;;;18.65;20.12;94598.28;5015163;28;20281;-64
2022/03/25 11:27:26;;;;;;;9.43;5.68;;;;;;;19.21;19.82;94594.94;5033576;28;20201;-60
2022/03/25 11:29:56;;;;;;;8.68;5.35;;;;;;;19.08;19.64;94597.38;5033171;28;20683;-64